sensor_id;sensor_type;location;lat;lon;timestamp;P1;durP1;ratioP1;P2;durP2;ratioP2
69985;SDS011;57328;52.054;5.294;2024-03-23T00:56:00;34.38;;;9.10;;
69985;SDS011;57328;52.054;5.294;2024-03-23T00:58:26;29.65;;;8.35;;
69985;SDS011;57328;52.054;5.294;2024-03-23T01:00:52;28.40;;;8.55;;
69985;SDS011;57328;52.054;5.294;2024-03-23T01:03:18;26.92;;;8.18;;
69985;SDS011;57328;52.054;5.294;2024-03-23T01:05:45;34.75;;;8.88;;
69985;SDS011;57328;52.054;5.294;2024-03-23T01:08:11;26.83;;;7.32;;
69985;SDS011;57328;52.054;5.294;2024-03-23T01:10:38;32.75;;;7.65;;
69985;SDS011;57328;52.054;5.294;2024-03-23T01:13:05;29.10;;;7.43;;
69985;SDS011;57328;52.054;5.294;2024-03-23T01:15:31;22.05;;;7.75;;
69985;SDS011;57328;52.054;5.294;2024-03-23T01:17:57;29.40;;;8.60;;
69985;SDS011;57328;52.054;5.294;2024-03-23T01:20:23;28.02;;;7.38;;
69985;SDS011;57328;52.054;5.294;2024-03-23T01:22:50;30.00;;;8.32;;
69985;SDS011;57328;52.054;5.294;2024-03-23T01:25:16;29.10;;;8.13;;
69985;SDS011;57328;52.054;5.294;2024-03-23T01:27:42;26.05;;;7.70;;
69985;SDS011;57328;52.054;5.294;2024-03-23T01:30:09;29.20;;;8.27;;
69985;SDS011;57328;52.054;5.294;2024-03-23T01:32:35;33.83;;;7.85;;
69985;SDS011;57328;52.054;5.294;2024-03-23T01:35:01;29.15;;;8.05;;
69985;SDS011;57328;52.054;5.294;2024-03-23T01:37:27;29.23;;;8.18;;
69985;SDS011;57328;52.054;5.294;2024-03-23T01:39:54;32.70;;;8.13;;
69985;SDS011;57328;52.054;5.294;2024-03-23T01:42:20;31.05;;;8.40;;
69985;SDS011;57328;52.054;5.294;2024-03-23T01:44:46;27.80;;;9.23;;
69985;SDS011;57328;52.054;5.294;2024-03-23T01:47:12;34.10;;;10.05;;
69985;SDS011;57328;52.054;5.294;2024-03-23T01:49:38;30.83;;;9.90;;
69985;SDS011;57328;52.054;5.294;2024-03-23T01:52:05;33.90;;;9.80;;
69985;SDS011;57328;52.054;5.294;2024-03-23T01:54:31;29.50;;;9.73;;
69985;SDS011;57328;52.054;5.294;2024-03-23T01:56:57;32.10;;;8.73;;
69985;SDS011;57328;52.054;5.294;2024-03-23T01:59:25;37.90;;;10.27;;
69985;SDS011;57328;52.054;5.294;2024-03-23T02:01:51;39.28;;;10.38;;
69985;SDS011;57328;52.054;5.294;2024-03-23T02:04:17;31.95;;;9.23;;
69985;SDS011;57328;52.054;5.294;2024-03-23T02:06:43;31.65;;;11.13;;
69985;SDS011;57328;52.054;5.294;2024-03-23T02:09:10;27.77;;;9.35;;
69985;SDS011;57328;52.054;5.294;2024-03-23T02:11:36;30.90;;;10.35;;
69985;SDS011;57328;52.054;5.294;2024-03-23T02:14:02;32.22;;;8.75;;
69985;SDS011;57328;52.054;5.294;2024-03-23T02:16:28;43.67;;;9.18;;
69985;SDS011;57328;52.054;5.294;2024-03-23T02:18:55;24.55;;;7.82;;
69985;SDS011;57328;52.054;5.294;2024-03-23T02:21:21;28.23;;;8.50;;
69985;SDS011;57328;52.054;5.294;2024-03-23T02:23:47;30.38;;;8.10;;
69985;SDS011;57328;52.054;5.294;2024-03-23T02:26:13;22.13;;;7.53;;
69985;SDS011;57328;52.054;5.294;2024-03-23T02:28:40;31.92;;;7.53;;
69985;SDS011;57328;52.054;5.294;2024-03-23T02:31:06;27.45;;;7.70;;
69985;SDS011;57328;52.054;5.294;2024-03-23T02:33:33;28.00;;;7.70;;
69985;SDS011;57328;52.054;5.294;2024-03-23T02:36:03;23.05;;;6.93;;
69985;SDS011;57328;52.054;5.294;2024-03-23T02:38:29;27.27;;;7.25;;
69985;SDS011;57328;52.054;5.294;2024-03-23T02:41:00;34.38;;;7.95;;
69985;SDS011;57328;52.054;5.294;2024-03-23T02:43:27;23.10;;;6.90;;
69985;SDS011;57328;52.054;5.294;2024-03-23T02:45:53;24.42;;;7.75;;
69985;SDS011;57328;52.054;5.294;2024-03-23T02:48:19;32.65;;;8.45;;
69985;SDS011;57328;52.054;5.294;2024-03-23T02:50:45;21.85;;;7.05;;
69985;SDS011;57328;52.054;5.294;2024-03-23T02:53:11;27.02;;;7.28;;
69985;SDS011;57328;52.054;5.294;2024-03-23T02:55:38;23.00;;;7.88;;
69985;SDS011;57328;52.054;5.294;2024-03-23T02:58:04;27.55;;;7.53;;
69985;SDS011;57328;52.054;5.294;2024-03-23T03:00:30;27.08;;;7.43;;
69985;SDS011;57328;52.054;5.294;2024-03-23T03:02:56;24.15;;;8.05;;
69985;SDS011;57328;52.054;5.294;2024-03-23T03:05:23;28.63;;;7.60;;
69985;SDS011;57328;52.054;5.294;2024-03-23T03:07:50;22.15;;;7.22;;
69985;SDS011;57328;52.054;5.294;2024-03-23T03:10:16;25.38;;;7.43;;
69985;SDS011;57328;52.054;5.294;2024-03-23T03:12:42;28.48;;;7.30;;
69985;SDS011;57328;52.054;5.294;2024-03-23T03:15:08;20.95;;;6.88;;
69985;SDS011;57328;52.054;5.294;2024-03-23T03:17:35;27.85;;;7.07;;
69985;SDS011;57328;52.054;5.294;2024-03-23T03:20:01;24.35;;;6.38;;
69985;SDS011;57328;52.054;5.294;2024-03-23T03:22:29;23.48;;;6.82;;
69985;SDS011;57328;52.054;5.294;2024-03-23T03:24:56;28.33;;;6.30;;
69985;SDS011;57328;52.054;5.294;2024-03-23T03:27:22;24.13;;;6.30;;
69985;SDS011;57328;52.054;5.294;2024-03-23T03:29:49;21.17;;;5.75;;
69985;SDS011;57328;52.054;5.294;2024-03-23T03:32:15;22.23;;;6.22;;
69985;SDS011;57328;52.054;5.294;2024-03-23T03:34:41;20.08;;;6.47;;
69985;SDS011;57328;52.054;5.294;2024-03-23T03:37:07;23.42;;;6.38;;
69985;SDS011;57328;52.054;5.294;2024-03-23T03:39:34;18.25;;;5.57;;
69985;SDS011;57328;52.054;5.294;2024-03-23T03:42:00;21.65;;;6.82;;
69985;SDS011;57328;52.054;5.294;2024-03-23T03:44:27;23.13;;;6.38;;
69985;SDS011;57328;52.054;5.294;2024-03-23T03:46:53;22.20;;;5.70;;
69985;SDS011;57328;52.054;5.294;2024-03-23T03:49:19;22.30;;;5.65;;
69985;SDS011;57328;52.054;5.294;2024-03-23T03:51:45;17.45;;;5.65;;
69985;SDS011;57328;52.054;5.294;2024-03-23T03:54:11;24.25;;;5.65;;
69985;SDS011;57328;52.054;5.294;2024-03-23T03:56:38;18.77;;;5.22;;
69985;SDS011;57328;52.054;5.294;2024-03-23T03:59:04;25.85;;;5.55;;
69985;SDS011;57328;52.054;5.294;2024-03-23T04:01:31;21.20;;;5.70;;
69985;SDS011;57328;52.054;5.294;2024-03-23T04:03:57;22.70;;;6.00;;
69985;SDS011;57328;52.054;5.294;2024-03-23T04:06:23;20.52;;;6.07;;
69985;SDS011;57328;52.054;5.294;2024-03-23T04:08:50;21.40;;;5.70;;
69985;SDS011;57328;52.054;5.294;2024-03-23T04:11:16;18.65;;;5.30;;
69985;SDS011;57328;52.054;5.294;2024-03-23T04:13:42;18.05;;;5.18;;
69985;SDS011;57328;52.054;5.294;2024-03-23T04:16:09;15.32;;;4.60;;
69985;SDS011;57328;52.054;5.294;2024-03-23T04:18:35;14.40;;;4.30;;
69985;SDS011;57328;52.054;5.294;2024-03-23T04:21:02;21.20;;;5.18;;
69985;SDS011;57328;52.054;5.294;2024-03-23T04:23:28;16.40;;;4.13;;
69985;SDS011;57328;52.054;5.294;2024-03-23T04:25:54;18.08;;;4.18;;
69985;SDS011;57328;52.054;5.294;2024-03-23T04:28:20;17.55;;;5.32;;
69985;SDS011;57328;52.054;5.294;2024-03-23T04:30:47;16.85;;;4.43;;
69985;SDS011;57328;52.054;5.294;2024-03-23T04:33:14;10.50;;;3.58;;
69985;SDS011;57328;52.054;5.294;2024-03-23T04:35:40;19.42;;;4.38;;
69985;SDS011;57328;52.054;5.294;2024-03-23T04:38:06;12.98;;;3.47;;
69985;SDS011;57328;52.054;5.294;2024-03-23T04:40:32;17.25;;;4.43;;
69985;SDS011;57328;52.054;5.294;2024-03-23T04:42:59;16.80;;;4.35;;
69985;SDS011;57328;52.054;5.294;2024-03-23T04:45:26;15.23;;;4.53;;
69985;SDS011;57328;52.054;5.294;2024-03-23T04:47:52;16.30;;;4.38;;
69985;SDS011;57328;52.054;5.294;2024-03-23T04:50:18;16.80;;;4.85;;
69985;SDS011;57328;52.054;5.294;2024-03-23T04:52:45;17.98;;;4.57;;
69985;SDS011;57328;52.054;5.294;2024-03-23T04:55:11;11.00;;;3.97;;
69985;SDS011;57328;52.054;5.294;2024-03-23T04:57:37;15.57;;;4.50;;
69985;SDS011;57328;52.054;5.294;2024-03-23T05:00:04;16.25;;;4.43;;
69985;SDS011;57328;52.054;5.294;2024-03-23T05:02:40;11.13;;;3.88;;
69985;SDS011;57328;52.054;5.294;2024-03-23T05:05:06;12.98;;;4.03;;
69985;SDS011;57328;52.054;5.294;2024-03-23T05:07:32;13.13;;;3.70;;
69985;SDS011;57328;52.054;5.294;2024-03-23T05:09:59;14.77;;;3.95;;
69985;SDS011;57328;52.054;5.294;2024-03-23T05:12:26;12.85;;;3.90;;
69985;SDS011;57328;52.054;5.294;2024-03-23T05:14:52;15.70;;;4.22;;
69985;SDS011;57328;52.054;5.294;2024-03-23T05:17:18;15.13;;;3.78;;
69985;SDS011;57328;52.054;5.294;2024-03-23T05:19:44;10.45;;;3.75;;
69985;SDS011;57328;52.054;5.294;2024-03-23T05:22:12;15.10;;;4.05;;
69985;SDS011;57328;52.054;5.294;2024-03-23T05:24:38;16.30;;;3.67;;
69985;SDS011;57328;52.054;5.294;2024-03-23T05:27:04;13.57;;;3.97;;
69985;SDS011;57328;52.054;5.294;2024-03-23T05:29:31;16.63;;;4.32;;
69985;SDS011;57328;52.054;5.294;2024-03-23T05:31:57;11.35;;;3.80;;
69985;SDS011;57328;52.054;5.294;2024-03-23T05:34:24;12.25;;;3.45;;
69985;SDS011;57328;52.054;5.294;2024-03-23T05:36:50;13.05;;;3.53;;
69985;SDS011;57328;52.054;5.294;2024-03-23T05:39:17;11.70;;;3.45;;
69985;SDS011;57328;52.054;5.294;2024-03-23T05:41:43;15.82;;;3.78;;
69985;SDS011;57328;52.054;5.294;2024-03-23T05:44:10;15.88;;;3.58;;
69985;SDS011;57328;52.054;5.294;2024-03-23T05:46:36;13.88;;;3.25;;
69985;SDS011;57328;52.054;5.294;2024-03-23T05:49:03;13.90;;;3.28;;
69985;SDS011;57328;52.054;5.294;2024-03-23T05:51:29;13.80;;;3.03;;
69985;SDS011;57328;52.054;5.294;2024-03-23T05:53:55;10.80;;;2.78;;
69985;SDS011;57328;52.054;5.294;2024-03-23T05:56:22;12.48;;;2.70;;
69985;SDS011;57328;52.054;5.294;2024-03-23T05:58:48;12.05;;;2.35;;
69985;SDS011;57328;52.054;5.294;2024-03-23T06:01:14;15.30;;;2.05;;
69985;SDS011;57328;52.054;5.294;2024-03-23T06:03:40;10.98;;;2.22;;
69985;SDS011;57328;52.054;5.294;2024-03-23T06:06:09;11.90;;;2.22;;
69985;SDS011;57328;52.054;5.294;2024-03-23T06:08:38;9.50;;;2.10;;
69985;SDS011;57328;52.054;5.294;2024-03-23T06:11:04;10.00;;;2.17;;
69985;SDS011;57328;52.054;5.294;2024-03-23T06:13:32;10.30;;;1.80;;
69985;SDS011;57328;52.054;5.294;2024-03-23T06:15:59;11.82;;;2.00;;
69985;SDS011;57328;52.054;5.294;2024-03-23T06:18:25;7.97;;;1.48;;
69985;SDS011;57328;52.054;5.294;2024-03-23T06:20:52;8.05;;;1.63;;
69985;SDS011;57328;52.054;5.294;2024-03-23T06:23:18;8.52;;;1.40;;
69985;SDS011;57328;52.054;5.294;2024-03-23T06:25:46;12.77;;;2.13;;
69985;SDS011;57328;52.054;5.294;2024-03-23T06:28:12;10.45;;;2.05;;
69985;SDS011;57328;52.054;5.294;2024-03-23T06:30:39;8.02;;;1.38;;
69985;SDS011;57328;52.054;5.294;2024-03-23T06:33:05;8.77;;;1.73;;
69985;SDS011;57328;52.054;5.294;2024-03-23T06:35:31;9.43;;;1.45;;
69985;SDS011;57328;52.054;5.294;2024-03-23T06:37:57;8.60;;;1.90;;
69985;SDS011;57328;52.054;5.294;2024-03-23T06:40:24;8.35;;;1.60;;
69985;SDS011;57328;52.054;5.294;2024-03-23T06:42:50;12.35;;;2.17;;
69985;SDS011;57328;52.054;5.294;2024-03-23T06:45:16;12.60;;;2.13;;
69985;SDS011;57328;52.054;5.294;2024-03-23T06:47:48;11.02;;;1.92;;
69985;SDS011;57328;52.054;5.294;2024-03-23T06:50:15;12.68;;;2.25;;
69985;SDS011;57328;52.054;5.294;2024-03-23T06:52:41;13.63;;;2.00;;
69985;SDS011;57328;52.054;5.294;2024-03-23T06:55:08;10.30;;;2.28;;
69985;SDS011;57328;52.054;5.294;2024-03-23T06:57:34;10.27;;;2.42;;
69985;SDS011;57328;52.054;5.294;2024-03-23T07:00:00;11.80;;;2.20;;
69985;SDS011;57328;52.054;5.294;2024-03-23T07:02:26;8.27;;;1.88;;
69985;SDS011;57328;52.054;5.294;2024-03-23T07:04:53;11.57;;;2.20;;
69985;SDS011;57328;52.054;5.294;2024-03-23T07:07:19;14.23;;;1.88;;
69985;SDS011;57328;52.054;5.294;2024-03-23T07:09:45;14.90;;;2.35;;
69985;SDS011;57328;52.054;5.294;2024-03-23T07:12:11;11.20;;;2.42;;
69985;SDS011;57328;52.054;5.294;2024-03-23T07:14:38;10.82;;;2.13;;
69985;SDS011;57328;52.054;5.294;2024-03-23T07:17:04;9.80;;;2.10;;
69985;SDS011;57328;52.054;5.294;2024-03-23T07:19:30;11.88;;;2.20;;
69985;SDS011;57328;52.054;5.294;2024-03-23T07:21:56;11.43;;;2.15;;
69985;SDS011;57328;52.054;5.294;2024-03-23T07:24:23;8.75;;;2.33;;
69985;SDS011;57328;52.054;5.294;2024-03-23T07:26:49;8.05;;;2.03;;
69985;SDS011;57328;52.054;5.294;2024-03-23T07:29:16;11.07;;;2.20;;
69985;SDS011;57328;52.054;5.294;2024-03-23T07:31:42;10.75;;;2.00;;
69985;SDS011;57328;52.054;5.294;2024-03-23T07:34:09;12.30;;;2.17;;
69985;SDS011;57328;52.054;5.294;2024-03-23T07:36:35;10.32;;;1.80;;
69985;SDS011;57328;52.054;5.294;2024-03-23T07:39:01;7.70;;;1.50;;
69985;SDS011;57328;52.054;5.294;2024-03-23T07:41:29;8.38;;;1.70;;
69985;SDS011;57328;52.054;5.294;2024-03-23T07:43:56;7.97;;;1.70;;
69985;SDS011;57328;52.054;5.294;2024-03-23T07:46:22;10.10;;;1.50;;
69985;SDS011;57328;52.054;5.294;2024-03-23T07:48:50;6.72;;;1.25;;
69985;SDS011;57328;52.054;5.294;2024-03-23T07:51:17;10.82;;;2.20;;
69985;SDS011;57328;52.054;5.294;2024-03-23T07:53:44;7.47;;;1.70;;
69985;SDS011;57328;52.054;5.294;2024-03-23T07:56:14;9.90;;;2.28;;
69985;SDS011;57328;52.054;5.294;2024-03-23T07:58:40;8.07;;;1.60;;
69985;SDS011;57328;52.054;5.294;2024-03-23T08:01:08;10.18;;;1.52;;
69985;SDS011;57328;52.054;5.294;2024-03-23T08:03:34;7.63;;;2.05;;
69985;SDS011;57328;52.054;5.294;2024-03-23T08:08:33;6.53;;;1.45;;
69985;SDS011;57328;52.054;5.294;2024-03-23T08:10:59;11.50;;;1.80;;
69985;SDS011;57328;52.054;5.294;2024-03-23T08:13:26;7.65;;;1.48;;
69985;SDS011;57328;52.054;5.294;2024-03-23T08:15:55;14.68;;;1.80;;
69985;SDS011;57328;52.054;5.294;2024-03-23T08:18:22;10.50;;;1.88;;
69985;SDS011;57328;52.054;5.294;2024-03-23T08:20:55;11.73;;;1.95;;
69985;SDS011;57328;52.054;5.294;2024-03-23T08:23:21;7.03;;;1.20;;
69985;SDS011;57328;52.054;5.294;2024-03-23T08:25:47;8.23;;;1.35;;
69985;SDS011;57328;52.054;5.294;2024-03-23T08:28:13;7.35;;;1.75;;
69985;SDS011;57328;52.054;5.294;2024-03-23T08:30:40;6.18;;;1.13;;
69985;SDS011;57328;52.054;5.294;2024-03-23T08:33:06;9.05;;;1.50;;
69985;SDS011;57328;52.054;5.294;2024-03-23T08:35:32;11.07;;;1.50;;
69985;SDS011;57328;52.054;5.294;2024-03-23T08:38:00;8.27;;;1.27;;
69985;SDS011;57328;52.054;5.294;2024-03-23T08:40:26;7.70;;;1.17;;
69985;SDS011;57328;52.054;5.294;2024-03-23T08:42:52;7.22;;;1.75;;
69985;SDS011;57328;52.054;5.294;2024-03-23T08:45:18;6.63;;;1.00;;
69985;SDS011;57328;52.054;5.294;2024-03-23T08:47:44;7.32;;;1.10;;
69985;SDS011;57328;52.054;5.294;2024-03-23T08:50:11;9.10;;;1.70;;
69985;SDS011;57328;52.054;5.294;2024-03-23T08:52:37;6.93;;;1.40;;
69985;SDS011;57328;52.054;5.294;2024-03-23T08:55:03;8.82;;;1.45;;
69985;SDS011;57328;52.054;5.294;2024-03-23T08:57:29;7.43;;;1.02;;
69985;SDS011;57328;52.054;5.294;2024-03-23T08:59:55;7.70;;;1.42;;
69985;SDS011;57328;52.054;5.294;2024-03-23T09:02:22;10.65;;;1.70;;
69985;SDS011;57328;52.054;5.294;2024-03-23T09:04:48;9.20;;;1.60;;
69985;SDS011;57328;52.054;5.294;2024-03-23T09:07:14;6.05;;;1.10;;
69985;SDS011;57328;52.054;5.294;2024-03-23T09:09:40;12.27;;;1.42;;
69985;SDS011;57328;52.054;5.294;2024-03-23T09:12:07;6.10;;;1.00;;
69985;SDS011;57328;52.054;5.294;2024-03-23T09:14:33;9.68;;;1.33;;
69985;SDS011;57328;52.054;5.294;2024-03-23T09:17:00;9.23;;;1.40;;
69985;SDS011;57328;52.054;5.294;2024-03-23T09:19:29;13.18;;;1.50;;
69985;SDS011;57328;52.054;5.294;2024-03-23T09:21:55;7.90;;;1.25;;
69985;SDS011;57328;52.054;5.294;2024-03-23T09:24:22;5.35;;;1.30;;
69985;SDS011;57328;52.054;5.294;2024-03-23T09:26:48;6.43;;;1.02;;
69985;SDS011;57328;52.054;5.294;2024-03-23T09:29:14;6.63;;;1.23;;
69985;SDS011;57328;52.054;5.294;2024-03-23T09:31:40;5.78;;;1.20;;
69985;SDS011;57328;52.054;5.294;2024-03-23T09:34:07;7.50;;;1.23;;
69985;SDS011;57328;52.054;5.294;2024-03-23T09:36:33;8.15;;;1.20;;
69985;SDS011;57328;52.054;5.294;2024-03-23T09:38:59;6.25;;;1.30;;
69985;SDS011;57328;52.054;5.294;2024-03-23T09:41:25;6.32;;;1.33;;
69985;SDS011;57328;52.054;5.294;2024-03-23T09:43:52;7.30;;;1.42;;
69985;SDS011;57328;52.054;5.294;2024-03-23T09:46:19;8.98;;;1.58;;
69985;SDS011;57328;52.054;5.294;2024-03-23T09:48:46;7.25;;;1.33;;
69985;SDS011;57328;52.054;5.294;2024-03-23T09:51:12;7.80;;;1.00;;
69985;SDS011;57328;52.054;5.294;2024-03-23T09:53:39;9.43;;;1.70;;
69985;SDS011;57328;52.054;5.294;2024-03-23T09:56:05;10.43;;;1.65;;
69985;SDS011;57328;52.054;5.294;2024-03-23T09:58:31;9.25;;;1.42;;
69985;SDS011;57328;52.054;5.294;2024-03-23T10:00:57;4.72;;;1.20;;
69985;SDS011;57328;52.054;5.294;2024-03-23T10:03:24;13.27;;;1.33;;
69985;SDS011;57328;52.054;5.294;2024-03-23T10:06:03;6.75;;;1.13;;
69985;SDS011;57328;52.054;5.294;2024-03-23T10:08:30;8.18;;;1.45;;
69985;SDS011;57328;52.054;5.294;2024-03-23T10:10:58;12.50;;;1.83;;
69985;SDS011;57328;52.054;5.294;2024-03-23T10:13:38;7.53;;;1.48;;
69985;SDS011;57328;52.054;5.294;2024-03-23T10:16:07;7.50;;;1.65;;
69985;SDS011;57328;52.054;5.294;2024-03-23T10:18:36;7.40;;;1.48;;
69985;SDS011;57328;52.054;5.294;2024-03-23T10:21:06;7.68;;;1.20;;
69985;SDS011;57328;52.054;5.294;2024-03-23T10:23:38;8.20;;;1.55;;
69985;SDS011;57328;52.054;5.294;2024-03-23T10:26:14;8.88;;;1.30;;
69985;SDS011;57328;52.054;5.294;2024-03-23T10:28:59;6.75;;;1.15;;
69985;SDS011;57328;52.054;5.294;2024-03-23T10:31:32;7.75;;;1.30;;
69985;SDS011;57328;52.054;5.294;2024-03-23T10:33:58;7.78;;;1.70;;
69985;SDS011;57328;52.054;5.294;2024-03-23T10:36:26;11.55;;;1.20;;
69985;SDS011;57328;52.054;5.294;2024-03-23T10:38:53;10.00;;;1.10;;
69985;SDS011;57328;52.054;5.294;2024-03-23T10:41:20;10.18;;;2.35;;
69985;SDS011;57328;52.054;5.294;2024-03-23T10:43:47;6.65;;;0.90;;
69985;SDS011;57328;52.054;5.294;2024-03-23T10:46:13;5.88;;;1.00;;
69985;SDS011;57328;52.054;5.294;2024-03-23T10:48:40;6.68;;;0.90;;
69985;SDS011;57328;52.054;5.294;2024-03-23T10:51:07;4.45;;;0.57;;
69985;SDS011;57328;52.054;5.294;2024-03-23T10:53:34;5.60;;;0.77;;
69985;SDS011;57328;52.054;5.294;2024-03-23T10:56:02;5.75;;;1.65;;
69985;SDS011;57328;52.054;5.294;2024-03-23T10:58:30;5.03;;;0.80;;
69985;SDS011;57328;52.054;5.294;2024-03-23T11:00:57;6.65;;;1.10;;
69985;SDS011;57328;52.054;5.294;2024-03-23T11:03:33;4.38;;;1.02;;
69985;SDS011;57328;52.054;5.294;2024-03-23T11:06:02;5.82;;;1.20;;
69985;SDS011;57328;52.054;5.294;2024-03-23T11:13:43;8.45;;;1.48;;
69985;SDS011;57328;52.054;5.294;2024-03-23T11:16:25;6.90;;;1.50;;
69985;SDS011;57328;52.054;5.294;2024-03-23T11:19:33;8.15;;;1.20;;
69985;SDS011;57328;52.054;5.294;2024-03-23T11:21:59;8.85;;;1.25;;
69985;SDS011;57328;52.054;5.294;2024-03-23T11:24:25;8.48;;;1.10;;
69985;SDS011;57328;52.054;5.294;2024-03-23T11:26:51;8.68;;;1.30;;
69985;SDS011;57328;52.054;5.294;2024-03-23T11:29:18;10.23;;;1.70;;
69985;SDS011;57328;52.054;5.294;2024-03-23T11:31:51;6.57;;;1.30;;
69985;SDS011;57328;52.054;5.294;2024-03-23T11:34:18;8.52;;;1.40;;
69985;SDS011;57328;52.054;5.294;2024-03-23T11:36:45;5.53;;;1.27;;
69985;SDS011;57328;52.054;5.294;2024-03-23T11:39:15;4.93;;;0.98;;
69985;SDS011;57328;52.054;5.294;2024-03-23T11:42:00;14.85;;;1.63;;
69985;SDS011;57328;52.054;5.294;2024-03-23T11:44:26;8.02;;;1.15;;
69985;SDS011;57328;52.054;5.294;2024-03-23T11:46:52;4.50;;;1.23;;
69985;SDS011;57328;52.054;5.294;2024-03-23T11:49:28;7.65;;;1.10;;
69985;SDS011;57328;52.054;5.294;2024-03-23T11:51:56;9.30;;;1.33;;
69985;SDS011;57328;52.054;5.294;2024-03-23T11:54:23;6.30;;;1.20;;
69985;SDS011;57328;52.054;5.294;2024-03-23T11:56:56;11.50;;;2.38;;
69985;SDS011;57328;52.054;5.294;2024-03-23T11:59:35;7.45;;;1.50;;
69985;SDS011;57328;52.054;5.294;2024-03-23T12:02:08;11.63;;;2.25;;
69985;SDS011;57328;52.054;5.294;2024-03-23T12:04:36;8.10;;;1.23;;
69985;SDS011;57328;52.054;5.294;2024-03-23T12:09:41;13.77;;;1.70;;
69985;SDS011;57328;52.054;5.294;2024-03-23T12:14:34;11.02;;;1.35;;
69985;SDS011;57328;52.054;5.294;2024-03-23T12:17:07;12.65;;;2.03;;
69985;SDS011;57328;52.054;5.294;2024-03-23T12:19:33;8.65;;;1.48;;
69985;SDS011;57328;52.054;5.294;2024-03-23T12:22:00;7.22;;;1.10;;
69985;SDS011;57328;52.054;5.294;2024-03-23T12:24:26;4.97;;;1.08;;
69985;SDS011;57328;52.054;5.294;2024-03-23T12:26:52;6.78;;;1.00;;
69985;SDS011;57328;52.054;5.294;2024-03-23T12:29:18;8.82;;;1.27;;
69985;SDS011;57328;52.054;5.294;2024-03-23T12:31:46;9.50;;;1.15;;
69985;SDS011;57328;52.054;5.294;2024-03-23T12:34:12;12.38;;;1.63;;
69985;SDS011;57328;52.054;5.294;2024-03-23T12:36:39;7.82;;;1.02;;
69985;SDS011;57328;52.054;5.294;2024-03-23T12:39:05;5.65;;;1.55;;
69985;SDS011;57328;52.054;5.294;2024-03-23T12:41:31;7.75;;;1.25;;
69985;SDS011;57328;52.054;5.294;2024-03-23T12:43:58;5.95;;;1.15;;
69985;SDS011;57328;52.054;5.294;2024-03-23T12:46:24;10.48;;;1.30;;
69985;SDS011;57328;52.054;5.294;2024-03-23T12:48:50;7.88;;;1.33;;
69985;SDS011;57328;52.054;5.294;2024-03-23T12:51:17;6.97;;;1.20;;
69985;SDS011;57328;52.054;5.294;2024-03-23T12:53:43;6.50;;;0.98;;
69985;SDS011;57328;52.054;5.294;2024-03-23T12:56:12;5.75;;;1.10;;
69985;SDS011;57328;52.054;5.294;2024-03-23T12:58:38;11.95;;;1.50;;
69985;SDS011;57328;52.054;5.294;2024-03-23T13:01:05;6.95;;;1.00;;
69985;SDS011;57328;52.054;5.294;2024-03-23T13:03:31;6.45;;;1.13;;
69985;SDS011;57328;52.054;5.294;2024-03-23T13:05:57;7.95;;;1.05;;
69985;SDS011;57328;52.054;5.294;2024-03-23T13:08:24;5.47;;;1.17;;
69985;SDS011;57328;52.054;5.294;2024-03-23T13:10:53;7.20;;;1.40;;
69985;SDS011;57328;52.054;5.294;2024-03-23T13:13:20;9.32;;;1.48;;
69985;SDS011;57328;52.054;5.294;2024-03-23T13:15:50;6.57;;;1.17;;
69985;SDS011;57328;52.054;5.294;2024-03-23T13:18:17;6.72;;;1.33;;
69985;SDS011;57328;52.054;5.294;2024-03-23T13:20:44;7.15;;;0.95;;
69985;SDS011;57328;52.054;5.294;2024-03-23T13:23:10;5.70;;;0.85;;
69985;SDS011;57328;52.054;5.294;2024-03-23T13:25:36;3.60;;;0.50;;
69985;SDS011;57328;52.054;5.294;2024-03-23T13:28:02;5.35;;;0.95;;
69985;SDS011;57328;52.054;5.294;2024-03-23T13:30:29;5.10;;;0.80;;
69985;SDS011;57328;52.054;5.294;2024-03-23T13:32:55;4.03;;;0.60;;
69985;SDS011;57328;52.054;5.294;2024-03-23T13:35:21;9.90;;;1.10;;
69985;SDS011;57328;52.054;5.294;2024-03-23T13:37:48;3.90;;;1.00;;
69985;SDS011;57328;52.054;5.294;2024-03-23T13:40:14;6.43;;;1.10;;
69985;SDS011;57328;52.054;5.294;2024-03-23T13:42:40;4.75;;;0.77;;
69985;SDS011;57328;52.054;5.294;2024-03-23T13:45:07;7.00;;;1.00;;
69985;SDS011;57328;52.054;5.294;2024-03-23T13:47:33;1.20;;;0.30;;
69985;SDS011;57328;52.054;5.294;2024-03-23T13:49:59;6.30;;;0.98;;
69985;SDS011;57328;52.054;5.294;2024-03-23T13:52:26;5.60;;;0.63;;
69985;SDS011;57328;52.054;5.294;2024-03-23T13:54:52;4.45;;;0.82;;
69985;SDS011;57328;52.054;5.294;2024-03-23T13:57:19;6.78;;;0.82;;
69985;SDS011;57328;52.054;5.294;2024-03-23T13:59:46;3.88;;;0.73;;
69985;SDS011;57328;52.054;5.294;2024-03-23T14:02:14;4.18;;;0.90;;
69985;SDS011;57328;52.054;5.294;2024-03-23T14:04:40;6.13;;;0.80;;
69985;SDS011;57328;52.054;5.294;2024-03-23T14:07:06;7.38;;;1.02;;
69985;SDS011;57328;52.054;5.294;2024-03-23T14:09:34;7.05;;;1.15;;
69985;SDS011;57328;52.054;5.294;2024-03-23T14:12:00;6.15;;;1.05;;
69985;SDS011;57328;52.054;5.294;2024-03-23T14:14:27;7.10;;;1.17;;
69985;SDS011;57328;52.054;5.294;2024-03-23T14:16:53;6.50;;;0.95;;
69985;SDS011;57328;52.054;5.294;2024-03-23T14:19:19;8.48;;;1.83;;
69985;SDS011;57328;52.054;5.294;2024-03-23T14:21:46;4.60;;;0.77;;
69985;SDS011;57328;52.054;5.294;2024-03-23T14:24:13;7.80;;;0.80;;
69985;SDS011;57328;52.054;5.294;2024-03-23T14:26:39;6.72;;;1.02;;
69985;SDS011;57328;52.054;5.294;2024-03-23T14:29:06;9.02;;;1.00;;
69985;SDS011;57328;52.054;5.294;2024-03-23T14:31:34;7.00;;;1.15;;
69985;SDS011;57328;52.054;5.294;2024-03-23T14:34:00;5.10;;;1.02;;
69985;SDS011;57328;52.054;5.294;2024-03-23T14:36:26;6.75;;;1.17;;
69985;SDS011;57328;52.054;5.294;2024-03-23T14:38:53;7.72;;;1.00;;
69985;SDS011;57328;52.054;5.294;2024-03-23T14:41:19;4.70;;;0.80;;
69985;SDS011;57328;52.054;5.294;2024-03-23T14:43:45;5.82;;;1.10;;
69985;SDS011;57328;52.054;5.294;2024-03-23T14:46:14;5.72;;;1.10;;
69985;SDS011;57328;52.054;5.294;2024-03-23T14:48:41;8.15;;;1.02;;
69985;SDS011;57328;52.054;5.294;2024-03-23T14:51:08;6.68;;;1.42;;
69985;SDS011;57328;52.054;5.294;2024-03-23T14:53:35;5.88;;;0.88;;
69985;SDS011;57328;52.054;5.294;2024-03-23T14:56:03;5.38;;;1.25;;
69985;SDS011;57328;52.054;5.294;2024-03-23T14:58:29;9.60;;;1.10;;
69985;SDS011;57328;52.054;5.294;2024-03-23T15:01:02;3.78;;;0.60;;
69985;SDS011;57328;52.054;5.294;2024-03-23T15:03:28;2.22;;;0.50;;
69985;SDS011;57328;52.054;5.294;2024-03-23T15:05:55;3.85;;;0.90;;
69985;SDS011;57328;52.054;5.294;2024-03-23T15:08:22;1.80;;;0.68;;
69985;SDS011;57328;52.054;5.294;2024-03-23T15:10:48;4.00;;;0.90;;
69985;SDS011;57328;52.054;5.294;2024-03-23T15:13:15;6.88;;;0.88;;
69985;SDS011;57328;52.054;5.294;2024-03-23T15:15:42;9.00;;;1.10;;
69985;SDS011;57328;52.054;5.294;2024-03-23T15:18:11;4.35;;;1.13;;
69985;SDS011;57328;52.054;5.294;2024-03-23T15:20:38;6.50;;;1.35;;
69985;SDS011;57328;52.054;5.294;2024-03-23T15:23:04;8.02;;;1.17;;
69985;SDS011;57328;52.054;5.294;2024-03-23T15:25:31;4.65;;;0.80;;
69985;SDS011;57328;52.054;5.294;2024-03-23T15:27:57;5.55;;;1.00;;
69985;SDS011;57328;52.054;5.294;2024-03-23T15:30:24;5.47;;;1.00;;
69985;SDS011;57328;52.054;5.294;2024-03-23T15:32:51;6.50;;;1.42;;
69985;SDS011;57328;52.054;5.294;2024-03-23T15:35:17;5.15;;;1.00;;
69985;SDS011;57328;52.054;5.294;2024-03-23T15:37:48;6.80;;;1.20;;
69985;SDS011;57328;52.054;5.294;2024-03-23T15:40:15;5.88;;;1.25;;
69985;SDS011;57328;52.054;5.294;2024-03-23T15:42:41;9.07;;;1.10;;
69985;SDS011;57328;52.054;5.294;2024-03-23T15:45:07;6.00;;;1.00;;
69985;SDS011;57328;52.054;5.294;2024-03-23T15:47:35;6.32;;;1.20;;